Saturday, November 18, 2017, 1:27 AM EST
Back to Local

KDYL, Doylestown Airport

Location: Doylestown, PA, United States Lat: 40.333
Local Time: 1:27 AM EST ( 6:27 GMT) Lon: -75.117
Time Zone: US/Eastern Elev: 393 ft

Show me the last for .
Show Decoded

2017-11-18 00:54 METAR KDYL 180554Z AUTO 00000KT 10SM CLR M02/M05 A3006 RMK AO2 SLP183 T10171050
                 10044 21022 58010 =
2017-11-17 23:54 METAR KDYL 180454Z AUTO 00000KT 10SM CLR M02/M05 A3007 RMK AO2 SLP187 T10171050
                 400941017 =
2017-11-17 22:54 METAR KDYL 180354Z AUTO 00000KT 10SM CLR M01/M05 A3008 RMK AO2 SLP192 T10111050
                 =
2017-11-17 21:54 METAR KDYL 180254Z AUTO 00000KT 10SM CLR 01/M05 A3009 RMK AO2 SLP193 T00061050
                 57004 =
2017-11-17 20:54 METAR KDYL 180154Z AUTO 00000KT 10SM CLR 02/M05 A3009 RMK AO2 SLP194 T00171050 =
2017-11-17 19:54 METAR KDYL 180054Z AUTO 00000KT 10SM CLR 02/M06 A3010 RMK AO2 SLP198 T00171056 =
2017-11-17 18:54 METAR KDYL 172354Z AUTO 00000KT 10SM CLR 03/M06 A3010 RMK AO2 SLP198 T00331056
                 10094 20028 51005 =
2017-11-17 17:54 METAR KDYL 172254Z AUTO 26004KT 10SM CLR 05/M06 A3010 RMK AO2 SLP197 T00501061 =
2017-11-17 16:54 METAR KDYL 172154Z AUTO 29004KT 10SM CLR 07/M06 A3010 RMK AO2 SLP197 T00671061 =
2017-11-17 15:54 METAR KDYL 172054Z AUTO 32008G16KT 10SM CLR 08/M06 A3008 RMK AO2 SLP191
                 T00831061 55006 =
2017-11-17 14:54 METAR KDYL 171954Z AUTO 29010KT 10SM CLR 09/M05 A3008 RMK AO2 SLP189 T00941050 =
2017-11-17 13:54 METAR KDYL 171854Z AUTO 31011G20KT 10SM CLR 09/M07 A3009 RMK AO2 SLP192
                 T00891067 =
2017-11-17 12:54 METAR KDYL 171754Z AUTO 31012G19KT 10SM CLR 09/M06 A3010 RMK AO2 SLP196
                 T00891061 10089 20033 56012 =
2017-11-17 11:54 METAR KDYL 171654Z AUTO 30013G20KT 10SM CLR 08/M05 A3011 RMK AO2 SLP199
                 T00781050 =
2017-11-17 10:54 METAR KDYL 171554Z AUTO 32009KT 10SM CLR 07/M04 A3012 RMK AO2 SLP204 T00671044 =
2017-11-17 09:54 METAR KDYL 171454Z AUTO 29011G20KT 10SM CLR 06/M04 A3014 RMK AO2 SLP210
                 T00561039 51020 =
2017-11-17 08:54 METAR KDYL 171354Z AUTO 33011G19KT 10SM CLR 05/M04 A3011 RMK AO2 SLP202
                 T00501039 =
2017-11-17 07:54 METAR KDYL 171254Z AUTO 30007G14KT 10SM SCT039 03/ A3011 RMK AO2 SLP200 T0033 =
2017-11-17 06:54 METAR KDYL 171154Z AUTO 31009G17KT 10SM FEW039 03/ A3008 RMK AO2 SLP189 T0033
                 10061 20033 51022 $ =
2017-11-17 05:54 METAR KDYL 171054Z AUTO 32011G25KT 290V360 10SM CLR 03/ A3005 RMK AO2 SLP182
                 T0033 $ =
2017-11-17 04:54 METAR KDYL 170954Z AUTO 34005KT 10SM SCT042 04/ A3004 RMK AO2 SLP176 T0039 $ =
2017-11-17 03:54 METAR KDYL 170854Z AUTO 33003KT 10SM BKN042 04/ A3001 RMK AO2 SLP166 T0044 51017
                 $ =
2017-11-17 02:54 METAR KDYL 170754Z AUTO 32009KT 290V350 10SM OVC043 05/ A3000 RMK AO2 SLP162
                 T0050 $ =
2017-11-17 01:54 METAR KDYL 170654Z AUTO 35008G16KT 10SM OVC038 05/ A2998 RMK AO2 SLP155 T0050 $
                 =

Support USWX by starting your Amazon purchase here.